createdAt,value
2022-11-09T00:04:59.472Z,33.83
2022-11-09T00:10:21.270Z,32.67
2022-11-09T00:15:43.080Z,31.38
2022-11-09T00:21:10.447Z,49.53
2022-11-09T00:26:32.647Z,32.25
2022-11-09T00:31:54.441Z,31.73
2022-11-09T00:37:16.261Z,30.20
2022-11-09T00:42:38.103Z,26.65
2022-11-09T00:47:59.886Z,31.08
2022-11-09T00:53:22.772Z,27.23
2022-11-09T00:58:44.589Z,28.25
2022-11-09T01:04:06.422Z,28.40
2022-11-09T01:09:28.280Z,31.75
2022-11-09T01:14:50.233Z,29.35
2022-11-09T01:20:12.097Z,30.10
2022-11-09T01:25:34.166Z,27.27
2022-11-09T01:30:56.031Z,29.25
2022-11-09T01:36:21.138Z,26.33
2022-11-09T01:41:42.978Z,23.67
2022-11-09T01:47:11.678Z,29.15
2022-11-09T01:52:40.680Z,29.52
2022-11-09T01:58:07.492Z,29.30
2022-11-09T02:03:42.784Z,28.10
2022-11-09T02:09:42.085Z,26.48
2022-11-09T02:15:06.959Z,28.92
2022-11-09T02:20:28.829Z,30.10
2022-11-09T02:26:06.215Z,28.20
2022-11-09T02:31:33.594Z,27.60
2022-11-09T02:36:55.394Z,26.38
2022-11-09T02:42:21.453Z,26.85
2022-11-09T02:47:43.610Z,28.20
2022-11-09T02:53:05.458Z,27.90
2022-11-09T02:58:27.248Z,30.15
2022-11-09T03:03:49.090Z,27.52
2022-11-09T03:09:12.079Z,31.08
2022-11-09T03:14:33.853Z,30.85
2022-11-09T03:19:55.652Z,30.85
2022-11-09T03:25:17.559Z,30.95
2022-11-09T03:30:39.309Z,29.40
2022-11-09T03:36:01.468Z,29.02
2022-11-09T03:41:23.234Z,30.83
2022-11-09T03:46:45.060Z,33.70
2022-11-09T03:52:06.884Z,29.40
2022-11-09T03:57:28.656Z,31.17
2022-11-09T04:02:51.065Z,30.80
2022-11-09T04:08:12.851Z,32.20
2022-11-09T04:13:34.781Z,32.75
2022-11-09T04:18:56.727Z,30.38
2022-11-09T04:24:18.529Z,31.02
2022-11-09T04:29:40.340Z,32.08
2022-11-09T04:35:02.773Z,31.10
2022-11-09T04:40:27.544Z,31.08
2022-11-09T04:45:49.372Z,32.92
2022-11-09T04:51:11.522Z,32.60
2022-11-09T04:56:33.346Z,31.48
2022-11-09T05:01:55.134Z,32.33
2022-11-09T05:07:17.100Z,32.53
2022-11-09T05:12:42.232Z,35.60
2022-11-09T05:18:07.886Z,36.10
2022-11-09T05:23:29.695Z,34.75
2022-11-09T05:28:51.457Z,33.05
2022-11-09T05:34:13.751Z,35.63
2022-11-09T05:39:35.548Z,36.67
2022-11-09T05:44:57.319Z,35.08
2022-11-09T05:50:19.325Z,34.85
2022-11-09T05:55:41.206Z,36.67
2022-11-09T06:01:08.786Z,32.67
2022-11-09T06:06:30.581Z,31.33
2022-11-09T06:11:52.483Z,33.40
2022-11-09T06:17:14.657Z,32.47
2022-11-09T06:22:36.468Z,33.55
2022-11-09T06:27:59.494Z,34.25
2022-11-09T06:33:21.872Z,36.53
2022-11-09T06:38:44.014Z,36.28
2022-11-09T06:44:05.935Z,29.80
2022-11-09T06:49:27.704Z,36.97
2022-11-09T06:54:49.464Z,34.55
2022-11-09T07:00:11.967Z,31.27
2022-11-09T07:05:38.609Z,34.17
2022-11-09T07:16:28.395Z,33.13
2022-11-09T07:21:50.155Z,30.38
2022-11-09T07:27:11.949Z,32.60
2022-11-09T07:38:27.951Z,36.83
2022-11-09T07:43:49.976Z,33.03
2022-11-09T07:49:25.643Z,34.92
2022-11-09T07:54:52.481Z,32.33
2022-11-09T08:00:19.871Z,32.90
2022-11-09T08:05:44.483Z,29.65
2022-11-09T08:11:06.555Z,34.65
2022-11-09T08:16:32.249Z,32.20
2022-11-09T08:22:03.147Z,31.40
2022-11-09T08:32:48.097Z,30.05
2022-11-09T08:38:09.922Z,30.40
2022-11-09T08:43:32.050Z,32.47
2022-11-09T08:48:53.908Z,29.08
2022-11-09T08:54:15.670Z,29.27
2022-11-09T08:59:37.583Z,31.50
2022-11-09T09:05:00.117Z,29.45
2022-11-09T09:10:21.963Z,31.65
2022-11-09T09:15:43.747Z,28.38
2022-11-09T09:21:07.510Z,30.08
2022-11-09T09:26:29.327Z,26.85
2022-11-09T09:31:51.135Z,26.80
2022-11-09T09:37:13.024Z,26.80
2022-11-09T09:42:37.540Z,31.05
2022-11-09T09:48:09.117Z,27.67
2022-11-09T09:53:53.432Z,29.20
2022-11-09T09:59:20.242Z,26.90
2022-11-09T10:04:42.256Z,26.90
2022-11-09T10:10:39.322Z,31.25
2022-11-09T10:16:26.316Z,35.05
2022-11-09T10:21:50.842Z,28.77
2022-11-09T10:27:33.975Z,30.52
2022-11-09T10:33:19.632Z,31.42
2022-11-09T10:38:47.319Z,30.97
2022-11-09T10:44:17.297Z,28.42
2022-11-09T10:49:40.758Z,28.77
2022-11-09T10:55:24.313Z,30.25
2022-11-09T11:01:01.450Z,29.55
2022-11-09T11:06:23.180Z,30.83
2022-11-09T11:11:45.415Z,42.92
2022-11-09T11:17:25.201Z,30.95
2022-11-09T11:22:47.317Z,31.63
2022-11-09T11:28:19.963Z,32.38
2022-11-09T11:33:42.585Z,30.00
2022-11-09T11:39:29.496Z,29.42
2022-11-09T11:45:39.651Z,27.58
2022-11-09T11:51:32.191Z,31.13
2022-11-09T11:57:08.796Z,26.48
2022-11-09T12:08:47.603Z,30.05
2022-11-09T12:14:43.348Z,26.65
2022-11-09T12:20:20.430Z,28.63
2022-11-09T12:25:53.091Z,27.63
2022-11-09T12:31:36.438Z,27.30
2022-11-09T12:37:03.055Z,25.25
2022-11-09T12:48:24.180Z,24.33
2022-11-09T12:53:45.982Z,25.73
2022-11-09T12:59:27.305Z,26.60
2022-11-09T13:04:57.276Z,21.75
2022-11-09T13:10:25.143Z,26.05
2022-11-09T13:16:09.331Z,26.83
2022-11-09T13:21:34.665Z,29.58
2022-11-09T13:27:02.436Z,26.70
2022-11-09T13:32:27.522Z,23.95
2022-11-09T13:37:57.504Z,26.77
2022-11-09T13:43:32.728Z,26.13
2022-11-09T13:48:55.541Z,26.15
2022-11-09T13:54:38.111Z,27.38
2022-11-09T14:00:00.928Z,27.27
2022-11-09T14:05:33.773Z,26.83
2022-11-09T14:11:30.297Z,28.63
2022-11-09T14:17:06.770Z,27.77
2022-11-09T14:22:35.312Z,25.67
2022-11-09T14:27:57.408Z,27.33
2022-11-09T14:33:32.519Z,27.85
2022-11-09T14:38:55.230Z,28.73
2022-11-09T14:44:29.636Z,25.60
2022-11-09T14:49:51.796Z,29.33
2022-11-09T14:55:15.826Z,29.48
2022-11-09T15:00:41.847Z,28.42
2022-11-09T15:06:12.601Z,28.48
2022-11-09T15:11:37.591Z,28.27
2022-11-09T15:17:14.991Z,29.15
2022-11-09T15:22:57.976Z,29.17
2022-11-09T15:28:21.977Z,31.73
2022-11-09T15:33:52.019Z,38.60
2022-11-09T15:39:18.087Z,31.23
2022-11-09T15:44:39.964Z,30.67
2022-11-09T15:50:06.924Z,36.25
2022-11-09T15:55:28.792Z,35.65
2022-11-09T16:00:50.625Z,36.10
2022-11-09T16:06:16.327Z,34.75
2022-11-09T16:11:38.142Z,33.28
2022-11-09T16:16:59.978Z,30.77
2022-11-09T16:22:21.820Z,37.30
2022-11-09T16:27:50.032Z,34.15
2022-11-09T16:33:12.602Z,34.47
2022-11-09T16:38:40.626Z,38.15
2022-11-09T16:44:03.544Z,37.70
2022-11-09T16:49:25.331Z,33.85
2022-11-09T16:54:47.167Z,35.00
2022-11-09T17:00:09.602Z,36.80
2022-11-09T17:05:31.417Z,37.55
2022-11-09T17:10:53.394Z,37.95
2022-11-09T17:16:15.265Z,38.13
2022-11-09T17:21:37.120Z,40.47
2022-11-09T17:26:59.231Z,39.78
2022-11-09T17:32:21.138Z,39.78
2022-11-09T17:37:43.073Z,43.80
2022-11-09T17:43:05.630Z,39.22
2022-11-09T17:48:27.416Z,40.40
2022-11-09T17:53:49.233Z,37.80
2022-11-09T17:59:11.473Z,39.88
2022-11-09T18:04:33.306Z,40.05
2022-11-09T18:09:55.531Z,43.25
2022-11-09T18:15:17.496Z,39.05
2022-11-09T18:20:39.442Z,42.85
2022-11-09T18:26:02.739Z,38.78
2022-11-09T18:31:24.772Z,39.22
2022-11-09T18:36:46.718Z,42.65
2022-11-09T18:42:08.530Z,42.38
2022-11-09T18:47:30.312Z,45.97
2022-11-09T18:52:52.206Z,50.58
2022-11-09T18:58:14.164Z,47.33
2022-11-09T19:03:35.967Z,48.47
2022-11-09T19:08:57.752Z,49.15
2022-11-09T19:14:19.582Z,49.15
2022-11-09T19:19:42.160Z,47.65
2022-11-09T19:25:04.380Z,44.92
2022-11-09T19:30:26.157Z,48.95
2022-11-09T19:36:15.127Z,54.38
2022-11-09T19:41:33.739Z,48.80
2022-11-09T19:46:55.609Z,50.95
2022-11-09T19:52:17.399Z,49.30
2022-11-09T19:57:39.382Z,53.30
2022-11-09T20:03:01.806Z,51.65
2022-11-09T20:08:24.169Z,49.65
2022-11-09T20:13:46.112Z,50.72
2022-11-09T20:19:11.570Z,48.90
2022-11-09T20:24:33.386Z,48.97
2022-11-09T20:29:55.331Z,54.17
2022-11-09T20:35:17.372Z,50.70
2022-11-09T20:40:39.196Z,56.83
2022-11-09T20:46:07.300Z,55.42
2022-11-09T20:51:29.168Z,53.40
2022-11-09T20:56:51.028Z,51.28
2022-11-09T21:02:15.764Z,57.17
2022-11-09T21:07:37.795Z,51.38
2022-11-09T21:12:59.583Z,52.80
2022-11-09T21:18:21.608Z,51.17
2022-11-09T21:23:44.629Z,48.38
2022-11-09T21:29:10.216Z,46.30
2022-11-09T21:34:36.540Z,51.00
2022-11-09T21:39:59.265Z,48.72
2022-11-09T21:45:21.129Z,48.63
2022-11-09T21:50:43.069Z,50.85
2022-11-09T21:56:05.471Z,50.45
2022-11-09T22:01:27.329Z,49.70
2022-11-09T22:06:49.195Z,52.25
2022-11-09T22:12:11.120Z,53.05
2022-11-09T22:17:32.934Z,50.70
2022-11-09T22:22:54.784Z,49.13
2022-11-09T22:28:16.640Z,50.70
2022-11-09T22:33:38.487Z,52.08
2022-11-09T22:39:00.327Z,50.80
2022-11-09T22:44:22.180Z,46.55
2022-11-09T22:49:44.014Z,48.00
2022-11-09T22:55:06.372Z,48.92
2022-11-09T23:00:28.311Z,49.22
2022-11-09T23:05:50.086Z,48.90
2022-11-09T23:11:15.929Z,45.83
2022-11-09T23:16:37.741Z,50.50
2022-11-09T23:21:59.503Z,52.70
2022-11-09T23:27:21.356Z,47.85
2022-11-09T23:32:43.198Z,48.92
2022-11-09T23:38:05.997Z,45.65
2022-11-09T23:43:27.793Z,46.03
2022-11-09T23:48:49.562Z,45.08
2022-11-09T23:54:11.446Z,48.95
2022-11-09T23:59:33.318Z,48.65
